Barron, Louisiana
Current Conditions -  °F | °C
As of 9:53 AM on Friday 28 Nov 2014 (Local Time) from KESF Reporting Station
Clear Clear  
Wind Chill: 50°   Ceiling: Unl
Heat Index: 50°   Visibility: 10mi
Dew Point: 36°   Wind: 9mph
Humidity: 59%   Direction: 150°SSE
Pressure: 30.41"   Gusts: NA
Location:  31.3606°N, 92.2142°W
Report Text: KESF 281553Z AUTO 15008KT 10SM CLR 10/02 A3041 RMK AO2 SLP297 T01000022
Loading
Personal Weather Stations






























Interactive Weather Map New forecast layout! Learn more

10-Day Weather Forecast

Advertisements
Track Severe Weather on mobile